Friday, January 19, 2018, 10:34 PM EST
Back to Local

KMMU, Morristown Municipal

Location: Morristown, NJ, United States Lat: 40.8
Local Time: 10:34 PM EST ( 3:34 GMT) Lon: -74.417
Time Zone: US/Eastern Elev: 187 ft

Show me the last for .
Show Coded

Time T Td Feel RH Dir Speed Gust Alt SLP Vis Weather Sky Remarks
2018-01-19 22:15 23 19 - 85 - Calm - 29.97 - 10 CLR None
2018-01-19 21:45 23 19 - 85 - Calm - 29.98 - 10 SCT200 None
2018-01-19 20:45 25 19 - 79 - Calm - 29.99 - 10 SCT200 None
2018-01-19 19:45 27 19 - 73 - Calm - 29.99 - 10 SCT200 None
2018-01-19 18:45 30 19 25 63 210° 5 - 29.99 - 10 SCT200 None
2018-01-19 17:45 32 19 26 59 220° 6 - 29.98 - 10 SCT200 None
2018-01-19 16:50 34 19 28 55 210° 7 - 29.98 - 10 SCT200 None
2018-01-19 15:50 37 19 33 47 210° 6 - 29.98 - 10 SCT200 None
2018-01-19 14:45 37 18 32 44 260° 7 - 29.97 - 10 BKN200 None
2018-01-19 13:45 36 18 28 47 270° 10 - 29.99 - 10 BKN200 None
2018-01-19 12:45 34 18 26 50 260° 9 - 30.01 - 10 BKN200 None
2018-01-19 11:50 30 18 23 58 240° 7 - 30.05 - 10 OVC150 None
2018-01-19 10:45 28 18 20 63 230° 8 - 30.08 - 10 OVC150 None
2018-01-19 09:45 27 16 19 63 230° 7 - 30.08 - 10 BKN150 BKN250 None
2018-01-19 08:45 21 18 - 85 - Calm - 30.08 - 10 BKN150 BKN250 None
2018-01-19 07:45 12 10 - 92 - Calm - 30.07 - 10 SCT150 None
2018-01-19 06:46 12 10 - 92 - Calm - 30.07 - 10 FEW150 None
2018-01-19 06:45 12 10 - 92 - Calm - 30.07 - 10 FEW250 None
2018-01-19 06:35 10 9 - 92 - Calm - 30.07 - 10 CLR None
2018-01-19 06:15 10 9 - 92 - Calm - 30.07 - 10 CLR None
2018-01-19 05:55 9 7 - 92 - Calm - 30.06 - 10 CLR None
2018-01-19 05:35 10 9 - 92 - Calm - 30.07 - 10 CLR None
2018-01-19 05:15 10 9 - 92 - Calm - 30.06 - 10 CLR None
2018-01-19 04:55 10 10 - 100 - Calm - 30.06 - 10 CLR None
2018-01-19 04:35 10 9 - 92 - Calm - 30.06 - 10 CLR None
2018-01-19 04:15 10 9 - 92 - Calm - 30.06 - 10 CLR None
2018-01-19 03:55 10 9 - 92 - Calm - 30.07 - 10 CLR None
2018-01-19 03:35 12 12 - 100 - Calm - 30.06 - 10 CLR None
2018-01-19 03:15 12 10 - 92 - Calm - 30.05 - 10 CLR None
2018-01-19 02:55 12 10 - 92 - Calm - 30.05 - 10 CLR None
2018-01-19 02:35 12 10 - 92 - Calm - 30.05 - 10 CLR None
2018-01-19 02:15 14 12 - 92 - Calm - 30.05 - 10 CLR None
2018-01-19 01:55 12 10 - 92 - Calm - 30.05 - 10 CLR None
2018-01-19 01:35 12 10 - 92 - Calm - 30.04 - 10 CLR None
2018-01-19 01:15 14 12 - 92 - Calm - 30.05 - 10 CLR None
2018-01-19 00:55 12 12 - 100 - Calm - 30.05 - 10 CLR None
2018-01-19 00:35 12 10 - 92 - Calm - 30.05 - 10 CLR None
2018-01-19 00:15 14 12 - 92 - Calm - 30.06 - 10 CLR None
2018-01-18 23:55 14 12 - 92 - Calm - 30.08 - 10 CLR None
2018-01-18 23:35 14 12 - 92 - Calm - 30.08 - 10 CLR None
2018-01-18 23:15 14 10 - 85 - Calm - 30.08 - 10 CLR None
2018-01-18 22:55 16 12 - 85 - Calm - 30.08 - 10 CLR None
2018-01-18 22:35 16 12 - 85 - Calm - 30.08 - 10 CLR None

Support USWX by starting your Amazon purchase here.